Time;durP1;ratioP1;P1;durP2;ratioP2;P2;SDS_P1;SDS_P2;PMS_P1;PMS_P2;Temp;Humidity;BMP_temperature;BMP_pressure;BME280_temperature;BME280_humidity;BME280_pressure;Samples;Min_cycle;Max_cycle;Signal;HPM_P1;HPM_P2
2022/07/20 00:00:07;;;;;;;3.60;1.50;;;;;;;24.04;36.41;100990.10;117301;1186;22906;-57
2022/07/20 00:02:34;;;;;;;;;;;;;;;24.02;36.34;100989.50;117334;1182;21838;-57
2022/07/20 00:05:02;;;;;;;4.20;1.50;;;;;;;23.99;36.34;100983.05;117199;1185;21890;-57
2022/07/20 00:07:29;;;;;;;2.50;1.20;;;;;;;23.96;36.48;100979.04;117369;1186;21854;-57
2022/07/20 00:12:42;;;;;;;3.70;1.60;;;;;;;23.94;36.48;100977.20;117273;1185;22646;-61
2022/07/20 00:15:09;;;;;;;5.60;1.50;;;;;;;23.92;36.52;100978.56;117418;1186;23705;-56
2022/07/20 00:17:36;;;;;;;3.60;1.40;;;;;;;23.90;36.59;100979.34;117304;1182;22534;-62
2022/07/20 00:20:04;;;;;;;4.90;1.80;;;;;;;23.93;36.60;100976.38;117266;1183;21911;-62
2022/07/20 00:22:31;;;;;;;4.70;1.30;;;;;;;23.95;36.70;100975.17;117167;1187;22004;-62
2022/07/20 00:24:59;;;;;;;6.10;1.70;;;;;;;23.96;36.50;100972.63;117312;1185;24130;-62
2022/07/20 00:27:26;;;;;;;7.40;1.40;;;;;;;23.96;36.62;100967.73;117456;1182;21862;-62
2022/07/20 00:29:53;;;;;;;3.50;1.90;;;;;;;23.96;36.58;100965.98;117278;1186;21908;-54
2022/07/20 00:32:20;;;;;;;4.80;1.70;;;;;;;23.93;36.75;100962.91;117222;1186;21866;-59
2022/07/20 00:34:47;;;;;;;3.20;1.60;;;;;;;23.89;36.77;100960.25;117305;1186;23396;-60
2022/07/20 00:37:14;;;;;;;3.50;1.80;;;;;;;23.88;36.59;100958.91;117236;1186;21867;-60
2022/07/20 00:39:41;;;;;;;4.50;2.20;;;;;;;23.86;36.60;100959.34;117286;1182;21853;-59
2022/07/20 00:42:08;;;;;;;5.00;2.20;;;;;;;23.85;36.67;100956.06;117161;1183;22982;-55
2022/07/20 00:44:35;;;;;;;5.70;2.00;;;;;;;23.83;36.86;100954.02;117199;1186;22073;-56
2022/07/20 00:47:03;;;;;;;5.20;2.30;;;;;;;23.80;36.91;100952.56;117151;1186;22793;-60
2022/07/20 00:49:30;;;;;;;4.90;2.40;;;;;;;23.78;36.90;100951.25;117695;1186;21965;-55
2022/07/20 00:51:57;;;;;;;5.20;2.10;;;;;;;23.76;36.95;100948.31;117175;1186;22725;-60
2022/07/20 00:54:24;;;;;;;3.50;1.90;;;;;;;23.74;37.00;100947.67;117154;1186;21856;-60
2022/07/20 00:56:51;;;;;;;4.30;1.90;;;;;;;23.74;37.07;100942.35;117181;1182;22737;-60
2022/07/20 00:59:18;;;;;;;9.10;2.10;;;;;;;23.74;37.17;100938.40;117241;1186;23491;-55
2022/07/20 01:01:45;;;;;;;3.80;2.00;;;;;;;23.79;37.02;100939.02;117129;1185;21964;-55
2022/07/20 01:04:13;;;;;;;4.30;2.30;;;;;;;23.77;37.02;100939.28;117167;1186;22110;-55
2022/07/20 01:06:40;;;;;;;6.90;2.70;;;;;;;23.75;37.02;100937.61;116989;1187;21975;-61
2022/07/20 01:09:07;;;;;;;4.70;2.00;;;;;;;23.72;37.19;100936.34;117005;1182;22932;-61
2022/07/20 01:11:35;;;;;;;6.10;2.80;;;;;;;23.68;37.27;100936.25;117219;1189;21857;-56
2022/07/20 01:14:02;;;;;;;5.90;2.60;;;;;;;23.63;37.40;100933.14;117186;1182;23567;-59
2022/07/20 01:16:29;;;;;;;5.30;2.30;;;;;;;23.60;37.46;100935.65;117251;1187;21867;-61
2022/07/20 01:18:57;;;;;;;5.10;2.10;;;;;;;23.56;37.53;100936.04;117207;1189;21898;-60
2022/07/20 01:21:24;;;;;;;6.50;2.50;;;;;;;23.49;37.57;100935.70;117259;1182;22953;-56
2022/07/20 01:23:51;;;;;;;7.30;2.70;;;;;;;23.36;37.62;100935.23;116925;1187;21868;-60
2022/07/20 01:26:19;;;;;;;5.20;2.30;;;;;;;23.30;37.66;100935.02;117161;1186;22591;-61
2022/07/20 01:28:46;;;;;;;4.60;2.40;;;;;;;23.26;37.85;100934.50;117330;1181;22912;-56
2022/07/20 01:31:13;;;;;;;5.00;2.00;;;;;;;23.23;37.93;100937.36;117179;1186;21856;-60
2022/07/20 01:33:40;;;;;;;3.90;2.10;;;;;;;23.19;38.05;100940.08;117170;1189;21967;-61
2022/07/20 01:36:08;;;;;;;3.90;2.20;;;;;;;23.13;38.16;100941.83;117286;1183;23701;-56
2022/07/20 01:38:35;;;;;;;7.00;2.80;;;;;;;23.10;38.14;100938.80;117350;1185;22912;-56
2022/07/20 01:41:03;;;;;;;5.50;2.70;;;;;;;23.07;38.19;100932.55;117157;1188;21857;-55
2022/07/20 01:43:30;;;;;;;4.90;2.50;;;;;;;23.03;38.26;100934.67;117035;1182;24170;-56
2022/07/20 01:45:57;;;;;;;3.00;2.10;;;;;;;23.01;38.26;100929.63;117094;1186;22928;-58
2022/07/20 01:48:24;;;;;;;5.20;2.30;;;;;;;23.00;38.40;100931.66;117308;1186;22985;-61
2022/07/20 01:50:51;;;;;;;6.80;2.10;;;;;;;22.98;38.50;100931.55;117177;1182;22985;-60
2022/07/20 01:53:17;;;;;;;5.90;2.40;;;;;;;22.98;38.66;100932.64;117150;1189;22974;-60
2022/07/20 01:55:45;;;;;;;3.90;2.20;;;;;;;22.99;38.83;100933.48;117155;1186;22784;-56
2022/07/20 01:58:12;;;;;;;4.50;2.80;;;;;;;23.00;38.72;100932.02;117184;1181;24314;-60
2022/07/20 02:00:39;;;;;;;4.20;2.20;;;;;;;23.02;38.79;100934.36;117229;1187;21847;-60
2022/07/20 02:03:06;;;;;;;4.00;2.50;;;;;;;23.03;38.93;100934.14;117097;1182;21854;-56
2022/07/20 02:05:34;;;;;;;4.20;2.10;;;;;;;23.04;39.01;100932.66;117267;1184;22905;-56
2022/07/20 02:08:01;;;;;;;3.80;2.50;;;;;;;23.06;39.06;100929.73;117294;1182;22892;-55
2022/07/20 02:10:28;;;;;;;5.20;2.60;;;;;;;23.06;39.04;100929.52;117300;1185;22913;-61
2022/07/20 02:12:55;;;;;;;5.50;2.50;;;;;;;23.05;39.02;100930.83;117178;1186;21918;-57
2022/07/20 02:18:08;;;;;;;5.40;2.80;;;;;;;22.98;39.12;100929.79;117261;1183;23564;-56
2022/07/20 02:20:35;;;;;;;7.00;2.60;;;;;;;22.95;39.04;100932.30;117310;1182;22923;-61
2022/07/20 02:23:03;;;;;;;5.80;2.60;;;;;;;22.96;39.20;100931.66;117133;1186;23538;-56
2022/07/20 02:25:31;;;;;;;5.00;2.40;;;;;;;23.01;39.10;100930.86;117356;1182;22903;-56
2022/07/20 02:28:05;;;;;;;5.50;2.90;;;;;;;23.00;39.18;100930.77;117374;1185;23563;-56
2022/07/20 02:30:33;;;;;;;5.50;3.20;;;;;;;22.97;39.30;100933.44;117285;1180;22910;-61
2022/07/20 02:33:01;;;;;;;4.70;2.60;;;;;;;22.93;39.29;100929.90;117261;1186;21984;-60
2022/07/20 02:35:28;;;;;;;5.30;2.80;;;;;;;22.91;39.22;100930.75;117265;1185;21858;-56
2022/07/20 02:37:58;;;;;;;11.30;3.20;;;;;;;22.87;39.14;100930.73;117087;1186;23049;-61
2022/07/20 02:40:25;;;;;;;5.10;2.60;;;;;;;22.84;39.31;100931.61;117299;1186;22899;-56
2022/07/20 02:42:52;;;;;;;5.50;2.90;;;;;;;22.74;39.49;100928.79;117268;1182;22729;-56
2022/07/20 02:45:21;;;;;;;3.40;2.30;;;;;;;22.71;39.50;100931.45;117316;1185;23563;-56
2022/07/20 02:47:49;;;;;;;3.60;2.50;;;;;;;22.70;39.62;100935.63;117169;1182;22905;-56
2022/07/20 02:50:16;;;;;;;10.80;3.60;;;;;;;22.70;39.75;100937.73;117303;1182;24149;-62
2022/07/20 02:52:43;;;;;;;7.80;3.00;;;;;;;22.71;39.76;100939.34;117314;1183;21857;-56
2022/07/20 02:55:11;;;;;;;6.90;2.60;;;;;;;22.70;39.63;100939.90;117009;1186;22951;-61
2022/07/20 02:57:38;;;;;;;5.80;2.30;;;;;;;22.66;39.69;100938.89;117177;1182;23618;-57
2022/07/20 03:00:07;;;;;;;5.80;2.90;;;;;;;22.56;40.20;100937.58;117227;1186;24156;-57
2022/07/20 03:02:34;;;;;;;6.60;3.10;;;;;;;22.55;40.22;100942.66;117148;1187;23574;-63
2022/07/20 03:05:01;;;;;;;7.50;2.70;;;;;;;22.53;40.23;100947.58;117204;1183;24132;-57
2022/07/20 03:07:28;;;;;;;14.10;3.10;;;;;;;22.53;40.41;100947.98;117274;1185;21922;-62
2022/07/20 03:09:55;;;;;;;9.10;3.00;;;;;;;22.53;40.42;100946.90;118485;1186;21738;-55
2022/07/20 03:12:22;;;;;;;7.50;3.00;;;;;;;22.54;40.47;100948.25;119201;1185;22422;-60
2022/07/20 03:14:50;;;;;;;7.90;3.10;;;;;;;22.55;40.44;100949.26;117833;1186;22719;-56
2022/07/20 03:17:17;;;;;;;11.60;3.40;;;;;;;22.57;40.49;100950.95;117325;1183;23461;-57
2022/07/20 03:19:45;;;;;;;6.00;2.60;;;;;;;22.58;40.52;100948.60;117310;1182;23453;-57
2022/07/20 03:22:12;;;;;;;4.60;2.50;;;;;;;22.59;40.70;100950.69;117295;1185;23431;-62
2022/07/20 03:24:40;;;;;;;5.20;2.90;;;;;;;22.61;40.79;100949.69;117422;1183;21869;-56
2022/07/20 03:27:07;;;;;;;5.10;2.90;;;;;;;22.65;40.70;100950.39;117277;1182;21863;-62
2022/07/20 03:29:34;;;;;;;9.30;3.30;;;;;;;22.69;40.77;100950.17;117230;1182;23677;-57
2022/07/20 03:32:01;;;;;;;7.00;3.00;;;;;;;22.72;40.83;100951.08;117092;1186;23010;-56
2022/07/20 03:34:28;;;;;;;6.90;3.20;;;;;;;22.76;40.85;100952.99;117217;1186;22966;-63
2022/07/20 03:36:56;;;;;;;6.00;3.40;;;;;;;22.80;40.80;100948.13;117104;1186;23554;-61
2022/07/20 03:39:24;;;;;;;8.80;3.20;;;;;;;22.84;40.88;100947.38;117326;1182;23435;-61
2022/07/20 03:41:51;;;;;;;5.20;2.90;;;;;;;22.89;41.01;100949.27;117281;1186;23644;-57
2022/07/20 03:44:20;;;;;;;7.30;3.50;;;;;;;22.94;40.95;100948.46;117263;1186;22628;-60
2022/07/20 03:46:47;;;;;;;6.50;2.80;;;;;;;23.00;40.83;100948.48;117179;1183;22057;-61
2022/07/20 03:49:14;;;;;;;9.80;3.20;;;;;;;23.09;40.87;100951.20;117226;1185;21858;-60
2022/07/20 03:51:42;;;;;;;5.50;2.90;;;;;;;23.20;40.88;100955.45;117088;1186;22630;-57
2022/07/20 03:54:09;;;;;;;5.10;3.00;;;;;;;23.27;40.84;100950.02;117245;1186;23493;-59
2022/07/20 03:56:39;;;;;;;4.80;3.10;;;;;;;23.36;40.75;100951.20;117365;1185;22070;-57
2022/07/20 03:59:08;;;;;;;6.40;2.80;;;;;;;23.48;40.75;100949.39;117207;1186;21856;-58
2022/07/20 04:01:35;;;;;;;12.00;3.20;;;;;;;23.62;40.51;100947.55;117123;1185;21863;-56
2022/07/20 04:04:04;;;;;;;8.80;3.30;;;;;;;23.74;40.61;100949.84;117432;1185;22911;-57
2022/07/20 04:06:31;;;;;;;7.70;2.90;;;;;;;23.86;40.47;100952.92;117424;1183;22493;-59
2022/07/20 04:08:58;;;;;;;7.90;3.00;;;;;;;23.95;40.43;100954.73;117235;1185;23467;-56
2022/07/20 04:11:25;;;;;;;6.90;2.90;;;;;;;24.05;40.26;100961.35;117191;1182;22626;-57
2022/07/20 04:13:52;;;;;;;5.60;2.60;;;;;;;24.14;40.20;100958.27;117375;1184;22746;-62
2022/07/20 04:16:19;;;;;;;4.70;2.80;;;;;;;24.23;40.06;100959.23;117285;1182;23297;-57
2022/07/20 04:18:47;;;;;;;8.10;3.00;;;;;;;24.30;40.10;100959.48;117309;1184;22922;-55
2022/07/20 04:21:15;;;;;;;7.50;3.10;;;;;;;24.41;40.12;100961.86;117325;1185;21854;-57
2022/07/20 04:23:43;;;;;;;5.10;2.90;;;;;;;24.53;40.12;100963.31;117371;1182;23464;-57
2022/07/20 04:26:10;;;;;;;4.20;3.00;;;;;;;24.65;40.03;100966.36;117438;1183;21872;-63
2022/07/20 04:28:37;;;;;;;6.00;3.20;;;;;;;24.74;39.98;100967.76;117169;1186;22834;-56
2022/07/20 04:31:05;;;;;;;6.80;2.80;;;;;;;24.88;39.88;100966.02;117270;1186;23479;-55
2022/07/20 04:33:32;;;;;;;5.00;2.70;;;;;;;25.01;39.76;100963.36;117315;1186;23396;-55
2022/07/20 04:36:00;;;;;;;6.30;2.80;;;;;;;25.13;39.68;100963.31;117294;1186;21843;-56
2022/07/20 04:38:28;;;;;;;5.00;2.80;;;;;;;25.26;39.52;100961.80;116798;1184;21847;-60
2022/07/20 04:40:56;;;;;;;5.60;2.70;;;;;;;25.36;39.42;100963.67;117291;1183;23642;-62
2022/07/20 04:43:23;;;;;;;5.00;2.70;;;;;;;25.47;39.29;100961.21;117211;1186;22811;-57
2022/07/20 04:45:51;;;;;;;5.50;2.60;;;;;;;25.54;39.41;100963.27;117370;1183;21870;-57
2022/07/20 04:48:24;;;;;;;4.40;2.80;;;;;;;25.68;39.27;100965.02;117239;1186;23506;-62
2022/07/20 04:50:51;;;;;;;8.90;3.10;;;;;;;25.87;39.10;100961.03;117116;1183;23566;-62
2022/07/20 04:53:18;;;;;;;4.40;2.70;;;;;;;26.02;38.94;100958.58;117221;1186;23056;-63
2022/07/20 04:55:45;;;;;;;5.20;2.50;;;;;;;26.20;38.67;100960.83;117220;1185;23564;-62
2022/07/20 04:58:12;;;;;;;6.10;2.30;;;;;;;26.27;38.56;100957.11;117868;1183;23442;-56
2022/07/20 05:00:40;;;;;;;4.30;2.60;;;;;;;26.37;38.49;100960.20;117259;1186;21888;-62
2022/07/20 05:03:07;;;;;;;8.20;2.60;;;;;;;26.54;38.29;100965.27;117343;1185;22930;-56
2022/07/20 05:05:35;;;;;;;7.00;2.40;;;;;;;26.67;38.12;100968.67;117322;1185;22925;-61
2022/07/20 05:08:02;;;;;;;3.80;2.80;;;;;;;26.79;37.91;100971.45;117123;1186;23477;-60
2022/07/20 05:10:30;;;;;;;4.60;2.90;;;;;;;26.91;37.90;100970.66;117105;1187;22925;-60
2022/07/20 05:12:57;;;;;;;5.30;2.40;;;;;;;27.02;37.63;100968.55;117087;1183;22649;-58
2022/07/20 05:15:24;;;;;;;6.10;2.50;;;;;;;27.16;37.48;100967.57;116954;1187;21855;-60
2022/07/20 05:17:51;;;;;;;6.50;2.60;;;;;;;27.24;37.52;100971.52;117161;1188;22916;-60
2022/07/20 05:20:19;;;;;;;5.40;2.70;;;;;;;27.39;37.43;100967.31;117159;1187;21880;-56
2022/07/20 05:22:46;;;;;;;7.30;2.60;;;;;;;27.55;37.32;100969.97;117320;1182;21863;-56
2022/07/20 05:25:13;;;;;;;5.10;2.30;;;;;;;27.72;37.13;100970.89;117216;1185;22979;-61
2022/07/20 05:27:41;;;;;;;4.50;2.70;;;;;;;27.87;37.01;100972.98;117342;1183;23433;-61
2022/07/20 05:30:08;;;;;;;5.90;2.40;;;;;;;28.04;36.96;100973.34;117307;1181;22656;-57
2022/07/20 05:32:36;;;;;;;5.70;2.50;;;;;;;28.22;36.75;100977.05;117327;1186;21919;-62
2022/07/20 05:35:05;;;;;;;8.80;2.90;;;;;;;28.37;36.57;100974.42;117455;1186;21918;-61
2022/07/20 05:37:32;;;;;;;4.00;2.60;;;;;;;28.50;36.32;100969.98;117427;1185;22911;-61
2022/07/20 05:39:59;;;;;;;26.40;4.10;;;;;;;28.60;36.27;100968.80;117438;1185;23602;-61
2022/07/20 05:42:27;;;;;;;9.60;3.00;;;;;;;28.77;36.29;100970.95;117273;1182;22061;-59
2022/07/20 05:44:54;;;;;;;4.80;2.50;;;;;;;28.93;36.10;100968.90;117361;1185;23445;-57
2022/07/20 05:47:22;;;;;;;4.90;2.20;;;;;;;29.13;35.97;100968.45;117305;1182;23541;-58
2022/07/20 05:49:50;;;;;;;4.70;2.40;;;;;;;29.27;35.78;100969.48;117339;1185;21911;-61
2022/07/20 05:52:17;;;;;;;6.70;2.70;;;;;;;29.38;35.61;100967.50;117017;1186;22948;-56
2022/07/20 05:54:44;;;;;;;6.30;2.80;;;;;;;29.45;35.29;100970.52;117715;1182;22976;-60
2022/07/20 05:57:11;;;;;;;4.70;2.20;;;;;;;29.50;34.99;100961.42;117355;1183;23509;-57
2022/07/20 05:59:40;;;;;;;5.10;2.60;;;;;;;29.60;34.72;100959.14;117115;1186;22935;-60
2022/07/20 06:02:08;;;;;;;5.50;2.70;;;;;;;29.76;35.12;100955.44;117383;1186;23627;-57
2022/07/20 06:04:37;;;;;;;5.90;2.40;;;;;;;29.96;35.00;100949.14;117328;1182;21854;-61
2022/07/20 06:07:05;;;;;;;7.60;2.50;;;;;;;30.11;34.53;100948.20;117391;1186;23523;-57
2022/07/20 06:09:32;;;;;;;4.60;2.20;;;;;;;30.19;34.56;100944.84;117294;1186;22317;-62
2022/07/20 06:12:00;;;;;;;6.80;2.50;;;;;;;30.36;34.35;100946.02;117149;1182;21858;-57
2022/07/20 06:14:27;;;;;;;8.80;3.10;;;;;;;30.56;33.48;100938.02;117192;1182;23461;-57
2022/07/20 06:16:54;;;;;;;6.00;2.60;;;;;;;30.67;33.57;100933.92;117275;1186;23295;-59
2022/07/20 06:19:22;;;;;;;6.00;2.50;;;;;;;30.82;33.73;100934.04;117065;1186;21954;-59
2022/07/20 06:21:49;;;;;;;3.50;2.40;;;;;;;30.97;33.67;100929.63;117328;1184;23083;-57
2022/07/20 06:24:16;;;;;;;6.90;2.80;;;;;;;31.05;33.33;100928.92;117376;1184;22905;-59
2022/07/20 06:26:45;;;;;;;4.40;2.40;;;;;;;31.07;33.10;100926.46;117236;1186;22892;-60
2022/07/20 06:29:15;;;;;;;5.20;2.70;;;;;;;31.11;32.71;100921.34;117329;1186;21855;-57
2022/07/20 06:31:42;;;;;;;5.00;2.60;;;;;;;31.25;32.50;100919.77;117297;1185;21858;-57
2022/07/20 06:34:30;;;;;;;14.30;3.50;;;;;;;31.30;32.31;100923.82;117240;1186;22916;-57
2022/07/20 06:36:57;;;;;;;7.30;3.00;;;;;;;31.35;32.05;100928.05;117110;1185;22923;-61
2022/07/20 06:39:24;;;;;;;7.20;2.70;;;;;;;31.34;32.30;100925.97;117226;1180;22793;-60
2022/07/20 06:41:51;;;;;;;5.00;2.60;;;;;;;31.44;32.26;100923.95;117223;1186;22085;-57
2022/07/20 06:44:20;;;;;;;5.20;3.20;;;;;;;31.53;31.91;100925.13;117058;1184;21857;-57
2022/07/20 06:46:47;;;;;;;4.80;2.50;;;;;;;31.60;32.05;100923.74;117252;1185;21861;-56
2022/07/20 06:49:24;;;;;;;6.50;2.40;;;;;;;31.75;31.92;100921.50;117131;1186;23458;-57
2022/07/20 06:51:52;;;;;;;7.20;2.80;;;;;;;31.87;31.74;100922.14;117338;1186;23626;-62
2022/07/20 06:54:19;;;;;;;4.90;2.90;;;;;;;32.01;31.86;100921.83;117467;1186;22932;-58
2022/07/20 06:56:46;;;;;;;5.80;2.70;;;;;;;32.14;31.50;100924.70;117365;1182;21859;-61
2022/07/20 06:59:15;;;;;;;6.60;3.60;;;;;;;32.30;31.22;100919.42;117305;1182;22167;-58
2022/07/20 07:01:42;;;;;;;5.20;2.70;;;;;;;32.44;30.47;100914.86;117124;1188;22728;-61
2022/07/20 07:04:09;;;;;;;5.00;2.80;;;;;;;32.44;30.20;100915.92;117239;1185;21857;-60
2022/07/20 07:06:37;;;;;;;6.00;2.70;;;;;;;32.40;30.25;100915.77;117290;1183;23456;-58
2022/07/20 07:09:04;;;;;;;7.30;2.60;;;;;;;32.44;30.41;100910.79;117247;1185;23457;-57
2022/07/20 07:11:31;;;;;;;7.40;2.70;;;;;;;32.58;30.56;100912.34;117200;1182;24195;-58
2022/07/20 07:13:58;;;;;;;4.90;2.20;;;;;;;32.73;30.40;100906.68;117447;1183;21866;-58
2022/07/20 07:16:26;;;;;;;5.70;2.30;;;;;;;32.92;30.55;100900.39;117339;1185;23436;-59
2022/07/20 07:18:54;;;;;;;4.70;2.20;;;;;;;33.03;30.23;100902.56;117393;1183;21857;-61
2022/07/20 07:21:22;;;;;;;4.20;2.70;;;;;;;33.06;29.93;100898.58;117321;1185;22933;-58
2022/07/20 07:23:49;;;;;;;67.80;7.30;;;;;;;33.17;30.44;100897.66;117383;1183;21864;-61
2022/07/20 07:26:19;;;;;;;8.40;3.10;;;;;;;33.40;29.57;100899.23;117197;1185;22003;-62
2022/07/20 07:28:46;;;;;;;5.70;2.80;;;;;;;33.59;29.44;100901.15;117370;1185;22916;-58
2022/07/20 07:31:17;;;;;;;4.90;2.80;;;;;;;33.74;29.37;100894.66;117267;1186;21859;-62
2022/07/20 07:33:46;;;;;;;6.10;3.10;;;;;;;33.74;28.82;100892.02;117294;1182;21858;-62
2022/07/20 07:36:13;;;;;;;4.10;2.70;;;;;;;33.72;28.87;100886.24;117379;1184;23653;-59
2022/07/20 07:38:40;;;;;;;5.10;2.70;;;;;;;33.76;28.92;100888.35;117289;1184;23515;-56
2022/07/20 07:41:07;;;;;;;5.80;2.80;;;;;;;33.88;29.21;100885.86;117088;1187;22933;-59
2022/07/20 07:43:35;;;;;;;4.30;2.60;;;;;;;34.10;29.11;100881.34;117516;1185;22917;-58
2022/07/20 07:46:02;;;;;;;4.10;2.50;;;;;;;34.30;28.75;100882.38;117442;1186;23538;-57
2022/07/20 07:48:29;;;;;;;6.60;2.70;;;;;;;34.33;28.34;100880.30;117422;1186;21990;-59
2022/07/20 07:50:56;;;;;;;3.60;2.60;;;;;;;34.31;28.44;100878.66;117318;1185;22956;-57
2022/07/20 07:53:23;;;;;;;3.30;2.60;;;;;;;34.37;28.27;100878.17;117096;1187;22913;-58
2022/07/20 07:55:50;;;;;;;3.70;2.40;;;;;;;34.54;28.15;100873.67;117293;1186;21856;-57
2022/07/20 07:58:19;;;;;;;4.10;2.40;;;;;;;34.66;27.96;100873.64;117076;1182;23541;-60
2022/07/20 08:00:47;;;;;;;4.90;2.40;;;;;;;34.79;27.71;100875.57;117337;1182;21885;-60
2022/07/20 08:03:14;;;;;;;5.50;2.90;;;;;;;34.96;27.70;100870.67;117333;1185;22913;-59
2022/07/20 08:05:42;;;;;;;5.10;2.70;;;;;;;34.97;27.54;100861.86;117280;1182;21998;-59
2022/07/20 08:08:11;;;;;;;5.40;2.70;;;;;;;34.98;27.82;100861.00;117311;1183;21857;-60
2022/07/20 08:10:39;;;;;;;4.60;2.50;;;;;;;35.14;27.45;100856.76;117359;1185;21861;-60
2022/07/20 08:13:53;;;;;;;3.60;2.70;;;;;;;35.17;27.38;100854.17;117303;1182;23433;-57
2022/07/20 08:16:21;;;;;;;46.00;19.00;;;;;;;35.29;27.26;100850.66;117281;1186;23535;-61
2022/07/20 08:18:49;;;;;;;17.80;8.40;;;;;;;35.38;27.23;100845.87;117259;1185;21863;-58
2022/07/20 08:21:17;;;;;;;6.30;3.80;;;;;;;35.60;26.61;100842.19;117114;1184;22813;-57
2022/07/20 08:23:45;;;;;;;6.40;2.90;;;;;;;35.73;26.47;100840.74;117579;1187;21889;-61
2022/07/20 08:26:12;;;;;;;7.20;4.10;;;;;;;35.72;26.57;100841.43;117209;1186;23662;-62
2022/07/20 08:28:40;;;;;;;7.60;4.20;;;;;;;35.68;26.62;100837.87;118258;1187;23564;-59
2022/07/20 08:31:11;;;;;;;7.00;3.90;;;;;;;35.57;26.03;100838.36;117472;1184;21851;-62
2022/07/20 08:33:39;;;;;;;5.90;2.50;;;;;;;35.48;26.17;100835.14;117329;1185;22705;-60
2022/07/20 08:36:06;;;;;;;7.90;3.30;;;;;;;35.37;25.89;100828.16;117177;1183;23535;-61
2022/07/20 08:38:33;;;;;;;5.60;2.90;;;;;;;35.26;26.08;100829.08;117393;1182;23503;-61
2022/07/20 08:41:01;;;;;;;6.20;2.60;;;;;;;35.34;26.12;100827.91;117460;1186;23699;-59
2022/07/20 08:43:29;;;;;;;5.30;2.70;;;;;;;35.57;26.58;100821.29;117281;1185;23462;-60
2022/07/20 08:45:57;;;;;;;5.50;2.70;;;;;;;35.81;25.58;100813.52;117343;1182;22333;-60
2022/07/20 08:48:25;;;;;;;7.50;2.40;;;;;;;35.84;25.73;100813.50;117343;1185;22916;-58
2022/07/20 08:50:52;;;;;;;11.50;3.30;;;;;;;35.84;25.84;100811.75;117262;1186;21858;-58
2022/07/20 08:53:20;;;;;;;6.00;2.50;;;;;;;36.09;25.84;100811.54;117306;1185;24224;-62
2022/07/20 08:55:47;;;;;;;4.60;3.00;;;;;;;36.30;25.37;100805.28;117251;1186;21866;-61
2022/07/20 08:58:14;;;;;;;5.80;3.20;;;;;;;36.33;25.30;100805.10;117385;1185;21854;-59
2022/07/20 09:00:42;;;;;;;5.30;2.80;;;;;;;36.29;25.63;100806.30;117376;1185;21862;-59
2022/07/20 09:03:09;;;;;;;4.00;2.60;;;;;;;36.44;25.65;100799.52;117226;1186;23432;-62
2022/07/20 09:05:39;;;;;;;4.10;2.50;;;;;;;36.71;25.61;100788.34;117301;1185;21888;-62
2022/07/20 09:08:11;;;;;;;5.50;2.60;;;;;;;37.00;25.38;100787.23;117430;1185;22906;-65
2022/07/20 09:10:41;;;;;;;5.60;2.90;;;;;;;37.10;24.77;100786.85;117277;1185;21873;-61
2022/07/20 09:13:13;;;;;;;7.70;3.10;;;;;;;37.03;24.21;100789.55;117330;1184;22857;-58
2022/07/20 09:15:48;;;;;;;4.50;3.30;;;;;;;36.78;24.33;100787.30;117339;1185;22837;-61
2022/07/20 09:18:20;;;;;;;7.30;3.40;;;;;;;36.63;24.08;100779.77;117380;1183;21864;-61
2022/07/20 09:20:51;;;;;;;5.70;4.00;;;;;;;36.52;24.37;100779.52;117445;1182;23308;-61
2022/07/20 09:23:26;;;;;;;5.30;3.50;;;;;;;36.49;24.83;100781.21;117265;1186;21899;-61
2022/07/20 09:26:00;;;;;;;6.00;3.30;;;;;;;36.67;24.89;100771.20;117371;1178;23455;-58
2022/07/20 09:28:47;;;;;;;5.20;3.20;;;;;;;36.89;24.32;100770.04;117351;1185;22624;-60
2022/07/20 09:31:19;;;;;;;10.40;3.20;;;;;;;36.81;24.02;100764.45;117234;1186;21864;-60
2022/07/20 09:33:51;;;;;;;5.90;3.00;;;;;;;36.59;24.23;100759.02;117129;1186;21843;-58
2022/07/20 09:36:20;;;;;;;5.40;2.90;;;;;;;36.50;24.44;100761.17;117304;1184;21858;-58
2022/07/20 09:38:48;;;;;;;5.40;3.80;;;;;;;36.54;24.05;100757.99;117128;1185;22838;-59
2022/07/20 09:41:30;;;;;;;10.00;3.20;;;;;;;36.56;24.08;100757.53;116986;1186;23550;-61
2022/07/20 09:43:59;;;;;;;4.90;2.50;;;;;;;36.78;24.19;100750.73;117242;1186;21867;-59
2022/07/20 09:46:29;;;;;;;4.50;2.80;;;;;;;37.03;24.25;100741.73;117256;1186;21978;-59
2022/07/20 09:48:58;;;;;;;9.00;3.10;;;;;;;37.24;23.69;100741.08;117316;1186;22107;-62
2022/07/20 09:51:29;;;;;;;8.90;3.40;;;;;;;37.32;23.21;100742.36;117180;1186;21874;-59
2022/07/20 09:54:01;;;;;;;8.70;3.00;;;;;;;37.32;23.23;100736.94;117347;1180;23466;-62
2022/07/20 09:56:29;;;;;;;5.50;2.70;;;;;;;37.44;23.34;100733.41;117379;1182;21845;-59
2022/07/20 09:58:57;;;;;;;5.10;2.80;;;;;;;37.69;23.42;100731.71;117409;1186;23436;-62
2022/07/20 10:01:26;;;;;;;3.70;2.70;;;;;;;38.15;23.47;100725.86;117230;1183;21855;-59
2022/07/20 10:03:55;;;;;;;3.70;2.80;;;;;;;38.47;22.97;100722.96;117295;1186;22913;-62
2022/07/20 10:06:23;;;;;;;5.10;2.70;;;;;;;38.48;22.67;100722.46;117233;1183;22932;-60
2022/07/20 10:08:59;;;;;;;5.70;2.50;;;;;;;38.44;22.70;100714.35;117144;1186;21902;-62
2022/07/20 10:11:26;;;;;;;5.40;2.50;;;;;;;38.53;22.51;100708.48;117436;1185;22856;-62
2022/07/20 10:13:54;;;;;;;5.30;3.20;;;;;;;38.46;22.01;100709.88;117368;1186;22625;-62
2022/07/20 10:16:28;;;;;;;4.60;2.70;;;;;;;38.30;22.38;100706.02;117372;1185;21858;-60
2022/07/20 10:18:56;;;;;;;4.90;2.40;;;;;;;37.98;22.16;100706.76;117302;1185;22436;-60
2022/07/20 10:21:35;;;;;;;11.20;3.40;;;;;;;37.76;22.54;100703.31;118795;1181;22954;-58
2022/07/20 10:24:31;;;;;;;3.90;3.00;;;;;;;37.72;22.54;100700.25;117344;1182;23442;-58
2022/07/20 10:27:02;;;;;;;5.30;2.70;;;;;;;37.66;22.52;100703.98;117447;1185;21861;-60
2022/07/20 10:29:48;;;;;;;4.50;2.60;;;;;;;37.55;22.60;100699.30;117304;1185;23016;-60
2022/07/20 10:32:16;;;;;;;3.50;2.30;;;;;;;37.39;22.35;100696.92;117355;1182;21981;-59
2022/07/20 10:34:48;;;;;;;4.40;2.60;;;;;;;37.26;22.65;100688.51;117355;1185;22958;-59
2022/07/20 10:37:23;;;;;;;5.80;3.20;;;;;;;37.38;22.87;100684.02;117291;1185;21858;-61
2022/07/20 10:40:13;;;;;;;4.60;2.60;;;;;;;37.57;22.83;100680.05;117336;1186;22917;-59
2022/07/20 10:42:47;;;;;;;5.00;2.60;;;;;;;37.77;22.28;100673.73;117263;1185;22034;-59
2022/07/20 10:45:19;;;;;;;7.50;2.90;;;;;;;37.78;22.09;100671.96;117270;1186;21862;-58
2022/07/20 10:47:46;;;;;;;4.90;2.60;;;;;;;37.76;22.11;100664.34;117363;1183;21902;-59
2022/07/20 10:50:19;;;;;;;4.70;2.70;;;;;;;37.86;21.85;100664.90;117288;1182;23446;-59
2022/07/20 10:52:47;;;;;;;5.80;3.00;;;;;;;37.99;21.94;100657.27;117282;1186;21864;-59
2022/07/20 10:55:33;;;;;;;4.50;2.70;;;;;;;38.21;21.78;100649.67;117239;1185;22951;-59
2022/07/20 10:58:02;;;;;;;4.10;2.90;;;;;;;38.44;21.66;100646.00;117424;1185;21873;-60
2022/07/20 11:00:32;;;;;;;7.60;3.30;;;;;;;38.44;21.15;100644.65;117439;1182;23702;-59
2022/07/20 11:03:01;;;;;;;4.20;2.60;;;;;;;38.19;21.27;100653.64;117288;1183;23493;-58
2022/07/20 11:05:28;;;;;;;6.10;3.00;;;;;;;37.94;21.60;100648.70;117316;1183;23560;-61
2022/07/20 11:08:04;;;;;;;6.40;4.30;;;;;;;37.70;21.41;100645.35;117066;1183;21908;-60
2022/07/20 11:10:31;;;;;;;11.10;7.10;;;;;;;37.48;21.46;100643.38;117290;1184;22919;-58
2022/07/20 11:13:00;;;;;;;13.40;9.40;;;;;;;37.43;21.64;100647.48;117226;1183;23481;-59
2022/07/20 11:15:37;;;;;;;11.20;9.20;;;;;;;37.40;21.47;100644.99;117905;1186;21859;-59
2022/07/20 11:18:08;;;;;;;11.40;9.50;;;;;;;37.20;21.43;100641.59;117315;1185;22070;-59
2022/07/20 11:20:35;;;;;;;13.30;8.40;;;;;;;37.06;21.77;100636.13;117311;1185;21970;-59
2022/07/20 11:23:03;;;;;;;11.80;8.10;;;;;;;37.11;21.84;100636.45;116988;1187;22506;-61
2022/07/20 11:25:50;;;;;;;8.50;5.80;;;;;;;37.13;21.88;100631.61;117225;1183;22967;-59
2022/07/20 11:28:19;;;;;;;15.10;5.40;;;;;;;37.14;21.73;100626.66;117372;1185;23437;-59